Time;durP1;ratioP1;P1;durP2;ratioP2;P2;SDS_P1;SDS_P2;PMS_P1;PMS_P2;Temp;Humidity;BMP_temperature;BMP_pressure;BME280_temperature;BME280_humidity;BME280_pressure;Samples;Min_cycle;Max_cycle;Signal;HPM_P1;HPM_P2
2022/02/26 00:02:18;;;;;;;5.85;1.70;;;;;;;3.18;63.39;101588.22;4965339;28;20525;-45
2022/02/26 00:04:45;;;;;;;6.72;1.52;;;;;;;3.16;64.43;101584.69;4963422;28;20083;-46
2022/02/26 00:07:12;;;;;;;10.70;2.03;;;;;;;3.16;64.55;101590.72;4968903;28;20058;-42
2022/02/26 00:09:39;;;;;;;13.45;1.75;;;;;;;3.16;64.37;101589.81;4970089;28;20109;-42
2022/02/26 00:12:06;;;;;;;7.85;1.60;;;;;;;3.14;63.81;101578.63;4968468;28;20047;-41
2022/02/26 00:14:33;;;;;;;10.43;1.58;;;;;;;3.14;63.50;101581.19;4962543;28;20043;-46
2022/02/26 00:17:00;;;;;;;8.82;2.08;;;;;;;3.13;63.66;101589.66;4963236;28;20105;-43
2022/02/26 00:19:26;;;;;;;4.97;1.17;;;;;;;3.11;63.26;101596.38;4964925;28;20640;-41
2022/02/26 00:21:54;;;;;;;7.22;1.58;;;;;;;3.10;64.11;101590.38;4965397;28;20109;-44
2022/02/26 00:24:21;;;;;;;5.55;1.35;;;;;;;3.07;63.71;101582.53;4964239;28;20050;-44
2022/02/26 00:26:47;;;;;;;8.70;0.90;;;;;;;3.06;64.72;101584.22;4948625;28;20055;-43
2022/02/26 00:29:14;;;;;;;9.73;1.08;;;;;;;3.06;64.41;101599.59;4948994;28;20051;-45
2022/02/26 00:31:41;;;;;;;9.20;1.83;;;;;;;3.05;64.63;101602.94;4948953;28;20172;-42
2022/02/26 00:34:08;;;;;;;8.10;1.50;;;;;;;3.04;63.72;101585.81;4951061;28;20055;-42
2022/02/26 00:36:34;;;;;;;5.43;1.20;;;;;;;3.03;65.13;101583.16;4946847;28;20051;-43
2022/02/26 00:39:01;;;;;;;9.57;1.33;;;;;;;3.00;64.77;101589.00;4945394;28;20047;-47
2022/02/26 00:41:28;;;;;;;10.00;1.33;;;;;;;3.02;64.95;101583.97;4950002;28;20051;-42
2022/02/26 00:43:54;;;;;;;4.00;0.90;;;;;;;3.01;63.84;101575.41;4947140;28;20122;-41
2022/02/26 00:46:21;;;;;;;8.98;1.60;;;;;;;3.00;64.73;101568.53;4942276;28;20050;-45
2022/02/26 00:51:34;;;;;;;12.07;1.73;;;;;;;3.00;65.33;101578.75;4944951;28;20456;-42
2022/02/26 00:54:01;;;;;;;7.43;2.35;;;;;;;3.00;65.45;101583.03;4947500;28;20784;-47
2022/02/26 00:56:27;;;;;;;5.63;1.55;;;;;;;3.01;64.23;101579.66;4947039;28;20054;-44
2022/02/26 00:58:55;;;;;;;5.43;1.40;;;;;;;3.00;64.75;101573.66;4953956;28;20055;-42
2022/02/26 01:01:22;;;;;;;10.10;1.95;;;;;;;2.99;64.86;101578.69;4962224;28;20108;-46
2022/02/26 01:03:51;;;;;;;7.80;1.58;;;;;;;2.98;65.54;101579.50;4961668;28;20109;-42
2022/02/26 01:06:18;;;;;;;9.20;1.27;;;;;;;2.97;64.72;101583.72;4961067;28;20187;-44
2022/02/26 01:08:45;;;;;;;9.32;1.55;;;;;;;2.95;65.11;101572.53;4961212;28;20125;-44
2022/02/26 01:11:11;;;;;;;6.40;1.35;;;;;;;2.92;64.13;101580.03;4963292;28;20066;-42
2022/02/26 01:13:38;;;;;;;8.98;1.77;;;;;;;2.89;64.30;101569.63;4959515;28;20105;-42
2022/02/26 01:16:07;;;;;;;7.25;1.88;;;;;;;2.89;64.42;101579.88;4959998;28;20058;-43
2022/02/26 01:18:35;;;;;;;7.82;1.30;;;;;;;2.87;64.75;101581.50;4962372;28;20141;-42
2022/02/26 01:21:03;;;;;;;8.15;1.45;;;;;;;2.85;64.54;101583.06;4958322;28;20066;-46
2022/02/26 01:23:32;;;;;;;7.78;1.63;;;;;;;2.84;64.94;101579.66;4961046;28;20047;-43
2022/02/26 01:26:00;;;;;;;11.15;2.67;;;;;;;2.85;65.24;101583.97;4961122;28;20046;-41
2022/02/26 01:28:32;;;;;;;9.63;1.70;;;;;;;2.82;65.94;101584.69;4961745;28;20039;-41
2022/02/26 01:30:59;;;;;;;11.55;1.67;;;;;;;2.79;64.53;101581.94;4962382;28;20485;-43
2022/02/26 01:33:26;;;;;;;6.72;1.67;;;;;;;2.74;65.30;101585.94;4969221;28;20121;-42
2022/02/26 01:35:54;;;;;;;12.40;1.73;;;;;;;2.72;65.52;101591.75;4966698;28;20062;-43
2022/02/26 01:38:20;;;;;;;7.15;1.25;;;;;;;2.69;64.45;101592.47;4970457;28;20093;-43
2022/02/26 01:40:47;;;;;;;11.65;1.90;;;;;;;2.65;65.82;101588.00;4962796;28;20105;-44
2022/02/26 01:43:13;;;;;;;8.30;1.63;;;;;;;2.63;66.01;101587.03;4969579;28;20055;-41
2022/02/26 01:45:40;;;;;;;6.07;1.67;;;;;;;2.60;66.15;101591.97;4965696;28;20055;-47
2022/02/26 01:48:07;;;;;;;8.77;2.10;;;;;;;2.56;65.41;101591.81;4968799;28;20055;-42
2022/02/26 01:50:33;;;;;;;7.80;1.15;;;;;;;2.52;65.51;101594.09;4963248;28;20499;-43
2022/02/26 01:53:01;;;;;;;11.15;1.73;;;;;;;2.44;66.09;101598.81;4965585;28;20051;-42
2022/02/26 01:55:28;;;;;;;6.88;1.80;;;;;;;2.38;65.29;101591.69;4959266;28;20400;-42
2022/02/26 01:57:54;;;;;;;5.00;1.60;;;;;;;2.35;65.49;101601.72;4958951;28;20047;-42
2022/02/26 02:00:22;;;;;;;4.70;1.73;;;;;;;2.33;66.14;101587.97;4943621;28;20083;-42
2022/02/26 02:02:48;;;;;;;6.45;1.40;;;;;;;2.29;65.75;101588.59;4939972;28;20625;-45
2022/02/26 02:05:15;;;;;;;7.22;1.75;;;;;;;2.26;66.10;101588.44;4941465;28;20051;-42
2022/02/26 02:07:42;;;;;;;10.93;2.42;;;;;;;2.23;65.13;101578.91;4942420;28;20118;-44
2022/02/26 02:10:09;;;;;;;7.28;1.77;;;;;;;2.23;66.49;101580.59;4939857;28;20495;-44
2022/02/26 02:12:36;;;;;;;7.97;1.50;;;;;;;2.18;66.71;101582.88;4941313;28;20125;-41
2022/02/26 02:15:03;;;;;;;15.25;3.45;;;;;;;2.18;65.43;101572.66;4948308;28;20055;-41
2022/02/26 02:17:29;;;;;;;10.52;1.67;;;;;;;2.15;65.98;101573.38;4947488;28;20133;-44
2022/02/26 02:19:56;;;;;;;6.80;1.60;;;;;;;2.13;65.65;101579.19;4941940;28;20110;-43
2022/02/26 02:22:22;;;;;;;12.52;2.95;;;;;;;2.11;66.36;101575.66;4947009;28;20443;-41
2022/02/26 02:24:49;;;;;;;13.07;2.05;;;;;;;2.10;65.85;101564.56;4942830;28;20452;-44
2022/02/26 02:27:17;;;;;;;12.15;2.83;;;;;;;2.08;65.97;101562.69;4938579;28;20043;-41
2022/02/26 02:29:44;;;;;;;10.75;1.70;;;;;;;2.05;66.25;101568.50;4941227;28;20055;-42
2022/02/26 02:32:11;;;;;;;6.95;1.70;;;;;;;2.03;66.67;101572.69;4925442;29;20138;-48
2022/02/26 02:34:38;;;;;;;6.75;1.13;;;;;;;2.01;66.86;101575.13;4946642;29;20098;-47
2022/02/26 02:37:07;;;;;;;6.65;1.85;;;;;;;2.00;66.79;101573.38;4944843;28;20511;-43
2022/02/26 02:39:34;;;;;;;13.30;2.08;;;;;;;1.99;67.18;101571.59;4952572;28;20055;-45
2022/02/26 02:42:00;;;;;;;7.45;2.08;;;;;;;1.97;66.95;101568.09;4945567;28;20059;-46
2022/02/26 02:44:27;;;;;;;9.13;1.88;;;;;;;1.96;66.66;101561.19;4938931;28;20055;-45
2022/02/26 02:46:55;;;;;;;13.23;1.92;;;;;;;1.92;66.29;101554.16;4948977;28;20051;-42
2022/02/26 02:49:22;;;;;;;9.82;1.75;;;;;;;1.90;67.42;101541.28;4948974;28;20066;-44
2022/02/26 02:51:48;;;;;;;8.88;2.15;;;;;;;1.87;66.27;101550.47;4949924;28;20594;-47
2022/02/26 02:54:15;;;;;;;11.35;2.00;;;;;;;1.84;66.29;101555.41;4946454;28;20102;-45
2022/02/26 02:56:41;;;;;;;9.07;2.08;;;;;;;1.82;66.52;101541.66;4946736;28;20471;-44
2022/02/26 02:59:08;;;;;;;7.53;2.08;;;;;;;1.78;66.86;101541.50;4945549;28;20110;-41
2022/02/26 03:01:35;;;;;;;3.88;1.67;;;;;;;1.76;67.59;101537.09;4945399;28;20116;-43
2022/02/26 03:04:02;;;;;;;13.85;1.83;;;;;;;1.73;67.67;101532.69;4941598;28;20051;-43
2022/02/26 03:06:28;;;;;;;7.45;1.55;;;;;;;1.72;66.57;101538.56;4940117;28;20055;-47
2022/02/26 03:08:55;;;;;;;7.25;1.63;;;;;;;1.73;66.90;101539.47;4937893;28;20051;-44
2022/02/26 03:11:22;;;;;;;11.65;1.92;;;;;;;1.72;66.98;101525.78;4940264;28;20047;-45
2022/02/26 03:13:48;;;;;;;11.52;3.15;;;;;;;1.71;68.88;101518.03;4937582;28;22288;-47
2022/02/26 03:16:16;;;;;;;16.20;2.42;;;;;;;1.73;68.49;101527.56;4939769;28;20118;-46
2022/02/26 03:18:43;;;;;;;8.65;1.40;;;;;;;1.76;68.43;101531.97;4940201;28;20549;-44
2022/02/26 03:21:09;;;;;;;10.00;1.88;;;;;;;1.78;68.88;101525.25;4942055;28;20117;-43
2022/02/26 03:23:36;;;;;;;8.20;2.03;;;;;;;1.82;69.14;101536.56;4938339;28;20195;-43
2022/02/26 03:26:03;;;;;;;10.50;2.05;;;;;;;1.82;68.00;101521.22;4939688;28;20572;-40
2022/02/26 03:28:34;;;;;;;9.68;2.10;;;;;;;1.83;67.95;101525.53;4940584;28;20061;-43
2022/02/26 03:31:01;;;;;;;12.30;1.88;;;;;;;1.83;68.62;101525.53;4939955;28;20047;-45
2022/02/26 03:33:28;;;;;;;11.60;2.13;;;;;;;1.83;68.20;101517.88;4943411;28;20043;-43
2022/02/26 03:35:54;;;;;;;8.27;1.77;;;;;;;1.83;68.84;101522.97;4938747;28;20133;-44
2022/02/26 03:38:21;;;;;;;9.75;2.00;;;;;;;1.85;68.42;101526.47;4941343;28;20051;-44
2022/02/26 03:40:47;;;;;;;9.38;2.75;;;;;;;1.84;68.98;101522.19;4936685;28;20055;-42
2022/02/26 03:43:14;;;;;;;13.77;2.72;;;;;;;1.83;67.81;101512.75;4940076;28;20055;-42
2022/02/26 03:45:41;;;;;;;10.70;1.63;;;;;;;1.82;68.86;101516.13;4941084;29;20055;-46
2022/02/26 03:48:07;;;;;;;14.85;1.90;;;;;;;1.83;68.50;101522.97;4942109;28;20051;-46
2022/02/26 03:50:34;;;;;;;13.73;2.42;;;;;;;1.80;68.76;101514.34;4945281;28;20055;-48
2022/02/26 03:53:00;;;;;;;9.55;1.73;;;;;;;1.80;68.02;101516.88;4945384;28;20429;-47
2022/02/26 03:55:27;;;;;;;9.52;1.70;;;;;;;1.78;68.54;101520.16;4947578;28;20051;-45
2022/02/26 03:57:54;;;;;;;8.75;2.13;;;;;;;1.76;67.83;101525.16;4943072;28;20075;-42
2022/02/26 04:00:20;;;;;;;6.45;1.77;;;;;;;1.74;68.21;101524.22;4943791;28;20051;-43
2022/02/26 04:02:47;;;;;;;7.95;1.45;;;;;;;1.72;69.56;101519.81;4941850;28;20435;-44
2022/02/26 04:05:14;;;;;;;6.50;1.63;;;;;;;1.67;68.87;101512.78;4946038;28;20054;-41
2022/02/26 04:07:43;;;;;;;10.00;1.70;;;;;;;1.66;69.36;101520.34;4945467;28;20047;-44
2022/02/26 04:10:10;;;;;;;13.40;2.38;;;;;;;1.62;68.81;101518.41;4944314;28;20047;-42
2022/02/26 04:12:37;;;;;;;7.40;1.67;;;;;;;1.61;68.75;101506.41;4944381;28;20114;-43
2022/02/26 04:15:04;;;;;;;5.28;1.38;;;;;;;1.57;68.55;101514.69;4945543;28;20050;-42
2022/02/26 04:17:31;;;;;;;7.30;1.88;;;;;;;1.52;68.92;101507.66;4962031;28;20047;-44
2022/02/26 04:19:58;;;;;;;13.68;2.65;;;;;;;1.47;68.35;101498.84;4949199;28;20055;-46
2022/02/26 04:22:25;;;;;;;15.57;2.25;;;;;;;1.43;69.57;101507.13;4961384;28;20107;-44
2022/02/26 04:24:51;;;;;;;13.32;2.15;;;;;;;1.40;69.11;101507.84;4948162;28;20094;-43
2022/02/26 04:27:18;;;;;;;10.32;2.20;;;;;;;1.40;69.64;101501.84;4946827;28;20043;-43
2022/02/26 04:29:44;;;;;;;12.35;2.10;;;;;;;1.37;68.99;101496.53;4948441;28;20086;-44
2022/02/26 04:32:31;;;;;;;11.73;1.45;;;;;;;1.34;68.67;101497.25;4946808;28;20161;-43
2022/02/26 04:34:58;;;;;;;10.48;1.58;;;;;;;1.35;68.82;101505.81;4945667;28;20106;-43
2022/02/26 04:37:24;;;;;;;8.40;2.03;;;;;;;1.36;69.05;101497.34;4949266;28;20055;-43
2022/02/26 04:39:51;;;;;;;9.90;2.10;;;;;;;1.35;69.80;101510.91;4946962;28;20054;-46
2022/02/26 04:42:18;;;;;;;7.75;1.50;;;;;;;1.32;69.51;101518.38;4942594;29;20055;-44
2022/02/26 04:44:45;;;;;;;9.40;1.98;;;;;;;1.28;69.05;101513.09;4946246;28;20137;-44
2022/02/26 04:47:12;;;;;;;9.57;2.00;;;;;;;1.25;69.69;101502.69;4945297;28;20051;-46
2022/02/26 04:49:40;;;;;;;12.18;2.08;;;;;;;1.24;68.86;101505.16;4961825;28;20051;-45
2022/02/26 04:52:07;;;;;;;10.60;1.40;;;;;;;1.22;69.61;101497.41;4946225;28;20102;-42
2022/02/26 04:54:34;;;;;;;12.32;2.47;;;;;;;1.21;69.65;101495.66;4961019;28;20043;-42
2022/02/26 04:57:01;;;;;;;8.68;1.80;;;;;;;1.22;69.88;101497.41;4945505;28;20640;-42
2022/02/26 04:59:28;;;;;;;11.10;1.60;;;;;;;1.20;69.74;101493.88;4948290;28;20098;-43
2022/02/26 05:01:54;;;;;;;10.32;1.55;;;;;;;1.19;69.93;101502.34;4944846;28;20055;-43
2022/02/26 05:04:21;;;;;;;7.80;1.83;;;;;;;1.19;70.39;101497.25;4946416;28;20047;-47
2022/02/26 05:06:48;;;;;;;9.00;1.90;;;;;;;1.19;69.80;101499.78;4944022;28;20052;-44
2022/02/26 05:09:14;;;;;;;11.15;2.30;;;;;;;1.16;70.41;101489.41;4941763;29;20059;-41
2022/02/26 05:11:41;;;;;;;16.17;2.28;;;;;;;1.15;69.75;101492.75;4955791;28;20059;-44
2022/02/26 05:14:07;;;;;;;12.65;2.40;;;;;;;1.13;69.88;101492.66;4947938;28;20102;-43
2022/02/26 05:16:34;;;;;;;12.25;2.90;;;;;;;1.12;71.04;101490.00;4946157;28;20079;-44
2022/02/26 05:19:03;;;;;;;6.75;1.92;;;;;;;1.12;70.66;101495.13;4958844;28;20039;-43
2022/02/26 05:21:34;;;;;;;7.32;1.63;;;;;;;1.09;69.64;101494.94;4946210;28;20055;-49
2022/02/26 05:24:00;;;;;;;10.25;1.50;;;;;;;1.04;70.41;101498.88;4945242;28;20555;-43
2022/02/26 05:26:27;;;;;;;7.35;2.55;;;;;;;0.98;70.00;101502.81;4943947;28;20078;-43
2022/02/26 05:28:54;;;;;;;5.05;1.50;;;;;;;0.93;70.00;101499.13;4945156;28;20082;-44
2022/02/26 05:31:21;;;;;;;12.38;2.15;;;;;;;0.89;69.22;101507.38;4946734;28;20043;-45
2022/02/26 05:33:47;;;;;;;6.30;1.65;;;;;;;0.86;69.96;101497.88;4956745;28;20063;-44
2022/02/26 05:36:14;;;;;;;4.68;1.08;;;;;;;0.85;69.99;101495.22;4944134;28;20117;-43
2022/02/26 05:38:41;;;;;;;10.90;2.17;;;;;;;0.86;69.95;101502.97;4941863;28;20050;-44
2022/02/26 05:41:09;;;;;;;8.35;1.10;;;;;;;0.92;70.11;101496.47;4939679;28;20098;-44
2022/02/26 05:43:35;;;;;;;7.47;1.55;;;;;;;0.94;70.14;101495.75;4943050;28;20051;-44
2022/02/26 05:46:02;;;;;;;8.23;2.05;;;;;;;0.96;70.76;101494.19;4946703;28;20400;-45
2022/02/26 05:48:29;;;;;;;10.20;1.67;;;;;;;0.97;71.16;101495.94;4944847;29;20130;-46
2022/02/26 05:50:56;;;;;;;16.20;1.73;;;;;;;0.98;70.89;101505.34;4946992;28;20472;-43
2022/02/26 05:53:23;;;;;;;12.77;1.88;;;;;;;1.01;70.14;101512.31;4943983;28;20121;-41
2022/02/26 05:55:50;;;;;;;9.85;1.48;;;;;;;0.97;70.02;101508.72;4945959;28;20106;-45
2022/02/26 05:58:17;;;;;;;11.48;2.08;;;;;;;0.96;70.23;101509.50;4943441;28;20051;-45
2022/02/26 06:00:44;;;;;;;9.65;1.90;;;;;;;0.94;70.26;101505.09;4945147;28;20055;-45
2022/02/26 06:03:10;;;;;;;15.20;2.13;;;;;;;0.90;71.07;101504.03;4942791;28;20049;-44
2022/02/26 06:05:37;;;;;;;7.95;1.50;;;;;;;0.87;71.44;101498.72;4945021;28;20146;-47
2022/02/26 06:08:04;;;;;;;12.80;2.42;;;;;;;0.85;70.11;101497.78;4944127;28;20102;-41
2022/02/26 06:10:31;;;;;;;7.80;1.23;;;;;;;0.82;70.62;101503.56;4945112;28;20075;-43
2022/02/26 06:12:58;;;;;;;6.47;1.60;;;;;;;0.80;70.03;101506.78;4947067;28;20063;-49
2022/02/26 06:15:25;;;;;;;14.13;2.47;;;;;;;0.79;70.93;101510.13;4942363;28;20292;-42
2022/02/26 06:17:52;;;;;;;8.38;1.88;;;;;;;0.76;70.95;101511.75;4951662;28;20102;-43
2022/02/26 06:20:19;;;;;;;9.75;2.22;;;;;;;0.76;71.26;101518.50;4956246;28;20055;-41
2022/02/26 06:22:45;;;;;;;8.23;1.38;;;;;;;0.80;71.96;101509.34;4940874;28;20125;-43
2022/02/26 06:25:12;;;;;;;6.95;1.30;;;;;;;0.82;71.08;101505.22;4945662;28;20133;-42
2022/02/26 06:27:41;;;;;;;11.82;1.60;;;;;;;0.86;71.60;101512.28;4947383;28;20051;-43
2022/02/26 06:30:10;;;;;;;5.90;1.27;;;;;;;0.89;72.62;101507.38;4942947;28;20051;-46
2022/02/26 06:32:38;;;;;;;9.23;1.52;;;;;;;0.94;72.34;101500.88;4943632;28;20110;-44
2022/02/26 06:35:06;;;;;;;9.93;1.73;;;;;;;1.01;72.62;101503.00;4946135;28;20058;-46
2022/02/26 06:37:33;;;;;;;10.80;1.90;;;;;;;1.06;72.56;101510.06;4943958;28;20102;-44
2022/02/26 06:40:01;;;;;;;8.82;1.88;;;;;;;1.09;72.85;101507.69;4945448;28;20122;-43
2022/02/26 06:42:27;;;;;;;3.33;1.10;;;;;;;1.10;73.03;101512.88;4953032;28;20047;-45
2022/02/26 06:44:54;;;;;;;5.95;1.35;;;;;;;1.14;72.29;101512.28;4945939;28;20047;-46
2022/02/26 06:47:21;;;;;;;6.63;1.25;;;;;;;1.14;72.32;101508.81;4946365;28;20598;-44
2022/02/26 06:49:47;;;;;;;5.93;1.20;;;;;;;1.17;72.43;101508.13;4939487;28;20126;-43
2022/02/26 06:52:14;;;;;;;6.25;1.65;;;;;;;1.19;72.20;101516.78;4944100;28;20059;-42
2022/02/26 06:54:40;;;;;;;9.55;1.55;;;;;;;1.23;71.81;101522.16;4944094;28;20727;-42
2022/02/26 06:57:27;;;;;;;9.57;1.45;;;;;;;1.23;71.37;101524.72;4964586;28;20086;-44
2022/02/26 06:59:53;;;;;;;9.50;1.17;;;;;;;1.24;72.30;101529.00;4960490;28;20053;-43
2022/02/26 07:02:20;;;;;;;12.73;2.33;;;;;;;1.25;71.31;101533.31;4959937;28;20105;-44
2022/02/26 07:04:47;;;;;;;12.45;2.00;;;;;;;1.24;71.99;101526.47;4957719;28;20738;-46
2022/02/26 07:07:13;;;;;;;5.35;1.70;;;;;;;1.24;72.31;101518.81;4960811;28;20103;-42
2022/02/26 07:09:41;;;;;;;13.40;2.10;;;;;;;1.28;72.45;101524.97;4962314;28;20047;-42
2022/02/26 07:12:09;;;;;;;9.10;1.23;;;;;;;1.32;72.55;101520.94;4962485;28;20454;-45
2022/02/26 07:14:36;;;;;;;11.70;2.13;;;;;;;1.32;72.31;101513.28;4962387;28;20046;-47
2022/02/26 07:17:03;;;;;;;11.23;1.67;;;;;;;1.36;72.35;101515.22;4962503;28;20089;-45
2022/02/26 07:19:30;;;;;;;8.13;1.40;;;;;;;1.41;72.73;101508.69;4961716;28;20071;-44
2022/02/26 07:21:59;;;;;;;7.03;1.58;;;;;;;1.40;72.86;101515.50;4963426;28;20053;-47
2022/02/26 07:24:26;;;;;;;4.95;1.60;;;;;;;1.45;72.55;101504.66;4955598;28;20646;-45
2022/02/26 07:26:53;;;;;;;6.63;1.88;;;;;;;1.50;73.03;101508.34;4961396;28;20106;-45
2022/02/26 07:29:20;;;;;;;13.07;1.85;;;;;;;1.54;72.92;101520.50;4963767;28;20684;-46
2022/02/26 07:31:47;;;;;;;4.57;1.27;;;;;;;1.58;73.87;101521.59;4956428;28;20106;-42
2022/02/26 07:34:14;;;;;;;13.32;3.25;;;;;;;1.62;72.36;101518.41;4943339;28;20079;-46
2022/02/26 07:36:44;;;;;;;11.35;2.10;;;;;;;1.70;73.23;101516.28;4942099;28;20134;-43
2022/02/26 07:39:11;;;;;;;9.60;1.48;;;;;;;1.74;72.97;101523.31;4943801;28;20044;-43
2022/02/26 07:41:38;;;;;;;10.65;1.58;;;;;;;1.77;73.11;101521.84;4952524;28;20102;-42
2022/02/26 07:44:05;;;;;;;4.53;1.17;;;;;;;1.86;72.40;101520.59;4945158;28;20071;-42
2022/02/26 07:46:32;;;;;;;13.68;2.35;;;;;;;1.93;72.04;101526.13;4949056;28;20499;-46
2022/02/26 07:48:58;;;;;;;10.85;2.05;;;;;;;2.02;73.26;101515.56;4942908;28;20496;-45
2022/02/26 07:51:25;;;;;;;7.32;1.35;;;;;;;2.10;73.65;101522.78;4948333;28;20833;-43
2022/02/26 07:53:52;;;;;;;10.98;1.02;;;;;;;2.22;73.50;101522.56;4945618;28;20130;-41
2022/02/26 07:56:19;;;;;;;11.35;1.83;;;;;;;2.29;72.61;101520.44;4947320;28;20063;-44
2022/02/26 07:58:50;;;;;;;8.52;2.10;;;;;;;2.40;73.60;101527.81;4944868;28;20051;-44
2022/02/26 08:01:17;;;;;;;8.75;1.38;;;;;;;2.52;72.43;101514.81;4949185;28;20051;-47
2022/02/26 08:03:44;;;;;;;8.35;1.80;;;;;;;2.74;72.25;101521.97;4946561;28;20066;-44
2022/02/26 08:06:11;;;;;;;14.55;2.90;;;;;;;3.05;72.12;101525.25;4944226;28;20508;-44
2022/02/26 08:08:37;;;;;;;7.40;1.58;;;;;;;3.39;71.78;101528.66;4946774;28;20125;-44
2022/02/26 08:11:04;;;;;;;7.47;1.40;;;;;;;3.79;70.80;101525.53;4949445;28;20117;-46
2022/02/26 08:13:30;;;;;;;7.70;1.60;;;;;;;4.21;70.10;101526.63;4947724;28;20115;-44
2022/02/26 08:15:57;;;;;;;12.20;1.85;;;;;;;4.78;68.93;101530.06;4946861;28;20043;-46
2022/02/26 08:18:24;;;;;;;10.05;1.95;;;;;;;5.28;67.88;101533.13;4949619;28;20093;-43
2022/02/26 08:20:50;;;;;;;10.45;1.88;;;;;;;5.80;66.62;101518.09;4962718;28;20051;-51
2022/02/26 08:23:17;;;;;;;11.25;2.30;;;;;;;6.29;65.61;101528.63;4964062;28;20062;-53
2022/02/26 08:25:44;;;;;;;4.13;1.20;;;;;;;6.79;63.23;101538.22;4961337;28;20039;-49
2022/02/26 08:28:10;;;;;;;11.18;1.95;;;;;;;7.18;62.38;101534.44;4963919;28;20050;-43
2022/02/26 08:30:37;;;;;;;5.72;1.48;;;;;;;7.40;61.83;101528.31;4964989;28;20128;-43
2022/02/26 08:33:04;;;;;;;3.80;1.05;;;;;;;7.61;60.44;101529.88;4959565;28;20050;-42
2022/02/26 08:35:31;;;;;;;6.32;1.92;;;;;;;7.76;60.18;101539.81;4955226;28;20040;-48
2022/02/26 08:37:59;;;;;;;7.82;1.52;;;;;;;8.06;59.23;101538.19;4952976;28;20114;-47
2022/02/26 08:40:26;;;;;;;6.47;1.80;;;;;;;8.40;58.50;101533.19;4940534;28;20102;-45
2022/02/26 08:42:52;;;;;;;10.13;1.88;;;;;;;8.62;58.33;101534.75;4946309;28;20055;-50
2022/02/26 08:45:19;;;;;;;9.20;2.45;;;;;;;8.97;56.92;101532.31;4958305;28;20692;-49
2022/02/26 08:47:46;;;;;;;12.65;2.38;;;;;;;9.20;56.55;101539.81;4949615;28;20059;-46
2022/02/26 08:50:16;;;;;;;7.18;1.60;;;;;;;9.37;56.46;101536.78;4958388;28;20061;-48
2022/02/26 08:52:43;;;;;;;5.10;1.73;;;;;;;9.60;56.37;101544.28;4950139;28;20081;-46
2022/02/26 08:55:10;;;;;;;9.02;1.90;;;;;;;9.93;55.24;101539.91;4946220;28;20039;-47
2022/02/26 08:57:37;;;;;;;14.68;2.35;;;;;;;10.36;55.16;101538.28;4957119;28;20067;-44
2022/02/26 09:00:07;;;;;;;9.02;2.38;;;;;;;10.78;53.60;101539.19;4949155;28;20061;-46
2022/02/26 09:02:33;;;;;;;9.23;1.98;;;;;;;11.08;52.32;101537.16;4946454;28;20099;-50
2022/02/26 09:05:00;;;;;;;10.30;2.40;;;;;;;11.07;53.13;101531.97;4947107;28;20438;-45
2022/02/26 09:07:27;;;;;;;11.15;1.52;;;;;;;11.25;52.54;101526.25;4947491;28;20051;-47
2022/02/26 09:09:54;;;;;;;9.90;2.55;;;;;;;11.59;50.52;101525.97;4947940;28;20054;-48
2022/02/26 09:12:21;;;;;;;14.52;2.15;;;;;;;12.05;51.25;101526.69;4945448;29;20051;-49
2022/02/26 09:14:47;;;;;;;9.88;2.00;;;;;;;12.55;50.72;101535.22;4942945;28;20109;-45
2022/02/26 09:17:14;;;;;;;8.02;1.67;;;;;;;12.82;49.50;101526.03;4949073;28;20047;-48
2022/02/26 09:19:41;;;;;;;8.50;2.03;;;;;;;13.03;49.20;101529.69;4945061;28;20047;-48
2022/02/26 09:22:08;;;;;;;11.48;2.33;;;;;;;12.82;49.15;101526.03;4946215;28;20094;-46
2022/02/26 09:24:35;;;;;;;7.72;2.22;;;;;;;12.88;49.48;101526.94;4962540;28;20099;-47
2022/02/26 09:27:02;;;;;;;7.82;1.70;;;;;;;13.06;48.23;101518.44;4944395;28;20051;-45
2022/02/26 09:29:29;;;;;;;6.95;1.80;;;;;;;13.29;47.88;101518.69;4960424;28;20056;-45
2022/02/26 09:31:56;;;;;;;10.68;1.88;;;;;;;13.64;48.87;101514.69;4942938;28;20051;-46
2022/02/26 09:34:24;;;;;;;9.70;1.70;;;;;;;14.01;47.84;101506.25;4945147;28;20091;-50
2022/02/26 09:36:52;;;;;;;6.40;2.28;;;;;;;14.09;47.39;101507.19;4963039;28;20055;-46
2022/02/26 09:39:18;;;;;;;11.15;1.98;;;;;;;14.08;47.80;101508.06;4955775;28;20043;-47
2022/02/26 09:41:46;;;;;;;8.07;1.75;;;;;;;14.39;46.54;101500.41;4943726;28;20058;-49
2022/02/26 09:44:15;;;;;;;11.15;3.25;;;;;;;14.63;46.10;101503.97;4946780;28;20236;-48
2022/02/26 09:46:43;;;;;;;13.88;3.00;;;;;;;14.87;45.86;101510.19;4954201;28;20058;-47
2022/02/26 09:49:10;;;;;;;11.57;2.40;;;;;;;14.98;45.65;101509.31;4947620;28;20051;-50
2022/02/26 09:51:42;;;;;;;12.00;2.60;;;;;;;15.00;44.85;101505.00;4944962;28;20051;-46
2022/02/26 09:54:09;;;;;;;10.02;1.98;;;;;;;15.14;45.02;101497.19;4943723;28;20559;-49
2022/02/26 09:56:37;;;;;;;8.57;2.75;;;;;;;15.40;45.27;101501.56;4954807;28;20187;-47
2022/02/26 09:59:04;;;;;;;9.57;1.48;;;;;;;15.59;45.20;101505.03;4957535;28;20102;-47
2022/02/26 10:01:31;;;;;;;12.05;2.05;;;;;;;15.79;45.38;101498.94;4937889;28;20063;-48
2022/02/26 10:04:08;;;;;;;11.38;2.65;;;;;;;15.97;45.02;101500.66;4952845;28;20074;-48
2022/02/26 10:06:36;;;;;;;11.13;2.42;;;;;;;15.97;44.36;101499.81;4947037;28;20053;-47
2022/02/26 10:09:10;;;;;;;7.43;2.58;;;;;;;15.97;44.28;101490.22;4957068;28;20149;-46
2022/02/26 10:11:38;;;;;;;8.60;2.10;;;;;;;15.76;43.94;101488.47;4944949;28;20103;-45
2022/02/26 10:14:08;;;;;;;11.52;1.92;;;;;;;15.78;43.62;101490.22;4944459;28;20106;-49
2022/02/26 10:16:47;;;;;;;11.50;2.25;;;;;;;15.88;44.06;101496.28;4934108;28;21016;-47
2022/02/26 10:19:35;;;;;;;11.02;1.63;;;;;;;16.15;43.46;101489.28;4943945;28;20055;-47
2022/02/26 10:22:08;;;;;;;8.25;1.88;;;;;;;16.35;43.83;101490.97;4943541;28;20050;-50
2022/02/26 10:24:36;;;;;;;12.93;3.15;;;;;;;16.65;43.86;101486.50;4945039;28;20051;-47
2022/02/26 10:27:09;;;;;;;8.77;2.17;;;;;;;16.49;42.41;101477.00;4944635;28;20103;-50
2022/02/26 10:29:37;;;;;;;7.45;2.03;;;;;;;16.55;43.50;101479.59;4957346;28;20103;-49
2022/02/26 10:32:06;;;;;;;8.07;1.65;;;;;;;16.63;43.73;101480.41;4937339;28;20395;-46
2022/02/26 10:34:35;;;;;;;6.75;2.05;;;;;;;16.71;42.84;101482.97;4957940;28;20496;-47
2022/02/26 10:37:05;;;;;;;8.70;1.52;;;;;;;16.30;43.58;101477.06;4942772;28;20105;-51
2022/02/26 10:39:39;;;;;;;13.93;2.53;;;;;;;15.91;43.95;101464.09;4957610;28;20099;-50
2022/02/26 10:42:15;;;;;;;10.38;1.77;;;;;;;15.44;44.68;101473.72;4937061;28;20114;-48
2022/02/26 10:44:42;;;;;;;6.85;1.85;;;;;;;14.71;45.67;101477.06;4941390;28;20101;-48
2022/02/26 10:47:13;;;;;;;9.40;1.77;;;;;;;14.31;46.78;101473.44;4942073;28;20659;-49
2022/02/26 10:49:43;;;;;;;10.43;1.73;;;;;;;14.87;46.96;101472.78;4940112;28;20149;-51
2022/02/26 10:52:12;;;;;;;11.23;1.63;;;;;;;15.35;46.92;101470.25;4944551;28;20055;-49
2022/02/26 10:54:41;;;;;;;9.70;1.40;;;;;;;14.89;46.44;101453.66;4942675;28;20078;-51
2022/02/26 10:57:10;;;;;;;13.32;1.38;;;;;;;14.51;46.73;101450.06;4939560;28;20059;-47
2022/02/26 10:59:41;;;;;;;;;;;;;;;14.39;46.46;101450.03;4941764;28;20050;-44
2022/02/26 11:02:22;;;;;;;7.38;1.35;;;;;;;14.27;46.09;101450.84;4940819;28;19930;-49
2022/02/26 11:04:51;;;;;;;10.07;1.33;;;;;;;14.23;46.53;101439.53;4939740;28;20047;-49
2022/02/26 11:07:18;;;;;;;8.45;1.67;;;;;;;14.16;46.57;101448.19;4943911;28;20051;-50
2022/02/26 11:09:52;;;;;;;5.30;0.88;;;;;;;13.75;47.45;101444.50;4940597;28;20056;-49
2022/02/26 11:12:20;;;;;;;6.72;1.08;;;;;;;13.35;46.68;101443.28;4945639;28;20065;-51
2022/02/26 11:14:52;;;;;;;9.57;1.40;;;;;;;12.99;47.87;101444.69;4941295;28;20063;-47
2022/02/26 11:17:22;;;;;;;5.55;1.02;;;;;;;12.64;48.83;101442.63;4943473;28;20094;-48
2022/02/26 11:19:55;;;;;;;5.00;1.17;;;;;;;12.25;50.26;101435.22;4939592;28;20498;-48
2022/02/26 11:22:23;;;;;;;4.55;1.20;;;;;;;12.03;51.01;101434.91;4947789;28;20110;-51
2022/02/26 11:24:51;;;;;;;9.52;2.50;;;;;;;11.91;50.83;101429.56;4942544;28;20688;-47
2022/02/26 11:27:18;;;;;;;8.00;1.50;;;;;;;11.85;51.93;101426.88;4946708;28;20051;-47
2022/02/26 11:29:45;;;;;;;5.40;1.13;;;;;;;11.68;52.15;101427.50;4946930;28;20047;-50
2022/02/26 11:32:15;;;;;;;5.32;0.85;;;;;;;11.41;50.71;101423.63;4953893;28;20051;-46
2022/02/26 11:34:42;;;;;;;6.28;1.10;;;;;;;11.39;51.96;101421.00;4960614;28;20053;-46